Time;durP1;ratioP1;P1;durP2;ratioP2;P2;SDS_P1;SDS_P2;PMS_P1;PMS_P2;Temp;Humidity;BMP_temperature;BMP_pressure;BME280_temperature;BME280_humidity;BME280_pressure;Samples;Min_cycle;Max_cycle;Signal;HPM_P1;HPM_P2
2022/07/01 00:01:47;;;;;;;20.75;13.05;;;;;;;15.21;100.00;100949.92;1761813;81;20994;-90
2022/07/01 00:04:14;;;;;;;19.25;12.95;;;;;;;15.22;100.00;100957.30;1761369;81;21535;-89
2022/07/01 00:06:42;;;;;;;19.65;14.00;;;;;;;15.22;100.00;100950.73;1742904;82;21061;-89
2022/07/01 00:09:09;;;;;;;17.57;13.05;;;;;;;15.22;100.00;100944.18;1762251;81;21856;-89
2022/07/01 00:11:36;;;;;;;17.15;12.37;;;;;;;15.23;100.00;100944.03;1761498;81;21520;-88
2022/07/01 00:14:04;;;;;;;22.02;11.88;;;;;;;15.24;100.00;100940.95;1761746;81;20954;-89
2022/07/01 00:16:32;;;;;;;16.40;11.65;;;;;;;15.22;100.00;100933.19;1742906;82;21979;-89
2022/07/01 00:18:59;;;;;;;17.67;11.85;;;;;;;15.21;100.00;100933.34;1762395;81;21055;-89
2022/07/01 00:21:26;;;;;;;16.77;12.28;;;;;;;15.18;100.00;100933.62;1761375;81;21137;-89
2022/07/01 00:23:53;;;;;;;16.93;12.07;;;;;;;15.18;100.00;100932.32;1743353;82;21030;-89
2022/07/01 00:26:20;;;;;;;20.00;12.50;;;;;;;15.14;100.00;100935.20;1761892;81;21045;-89
2022/07/01 00:28:47;;;;;;;15.15;11.53;;;;;;;15.14;100.00;100936.52;1757659;81;21057;-92
2022/07/01 00:31:15;;;;;;;17.07;12.23;;;;;;;15.13;100.00;100931.42;1753212;81;21056;-91
2022/07/01 00:33:42;;;;;;;17.52;11.95;;;;;;;15.12;100.00;100932.38;1753136;81;21129;-90
2022/07/01 00:36:09;;;;;;;15.55;11.78;;;;;;;15.09;100.00;100929.55;1753318;81;21105;-91
2022/07/01 00:38:36;;;;;;;16.85;11.93;;;;;;;15.07;100.00;100921.45;1753209;81;21089;-91
2022/07/01 00:41:03;;;;;;;18.35;12.15;;;;;;;15.04;100.00;100919.94;1753636;81;21006;-90
2022/07/01 00:43:38;;;;;;;15.75;12.05;;;;;;;15.02;100.00;100923.67;1753150;81;21085;-90
2022/07/01 00:46:05;;;;;;;16.12;12.10;;;;;;;14.92;100.00;100926.29;1752729;81;21850;-90
2022/07/01 00:48:34;;;;;;;17.00;11.63;;;;;;;14.83;100.00;100922.21;1753133;81;20943;-89
2022/07/01 00:51:02;;;;;;;15.13;11.25;;;;;;;14.78;100.00;100918.33;1721981;81;21110;-88
2022/07/01 00:53:32;;;;;;;17.45;11.70;;;;;;;14.72;100.00;100918.38;1753207;81;21041;-89
2022/07/01 00:55:59;;;;;;;14.33;11.73;;;;;;;14.70;100.00;100916.40;1753206;81;21046;-89
2022/07/01 00:58:29;;;;;;;12.65;11.33;;;;;;;14.65;100.00;100910.69;1753177;81;21260;-89
2022/07/01 01:00:59;;;;;;;21.50;13.60;;;;;;;14.59;100.00;100915.16;1753294;81;21011;-89
2022/07/01 01:03:27;;;;;;;21.90;13.93;;;;;;;14.49;100.00;100918.58;1753266;81;21093;-88
2022/07/01 01:05:56;;;;;;;21.57;13.85;;;;;;;14.38;100.00;100912.12;1753375;81;21026;-91
2022/07/01 01:08:25;;;;;;;22.85;15.78;;;;;;;14.30;100.00;100908.05;1753344;81;21018;-89
2022/07/01 01:10:54;;;;;;;26.73;17.07;;;;;;;14.25;100.00;100902.36;1753431;81;21134;-88
2022/07/01 01:13:21;;;;;;;29.30;17.32;;;;;;;14.20;100.00;100904.91;1753315;81;21049;-88
2022/07/01 01:15:48;;;;;;;32.15;19.73;;;;;;;14.13;100.00;100899.02;1753484;81;21081;-88
2022/07/01 01:18:16;;;;;;;30.72;19.95;;;;;;;14.04;100.00;100895.41;1753403;81;21029;-89
2022/07/01 01:20:44;;;;;;;33.60;21.23;;;;;;;13.95;100.00;100894.37;1753156;81;21038;-88
2022/07/01 01:23:11;;;;;;;44.98;22.95;;;;;;;13.91;100.00;100893.00;1753246;81;21117;-89
2022/07/01 01:25:39;;;;;;;37.95;21.87;;;;;;;13.87;100.00;100888.51;1753165;81;21002;-88
2022/07/01 01:28:07;;;;;;;29.92;20.50;;;;;;;13.83;100.00;100890.20;1752885;81;33563;-89
2022/07/01 01:30:35;;;;;;;30.62;19.75;;;;;;;13.79;100.00;100894.87;1743122;81;21019;-88
2022/07/01 01:33:04;;;;;;;34.18;21.68;;;;;;;13.75;100.00;100890.02;1743103;82;21441;-88
2022/07/01 01:35:31;;;;;;;37.15;22.15;;;;;;;13.68;100.00;100895.77;1743371;82;21134;-89
2022/07/01 01:37:58;;;;;;;35.92;22.22;;;;;;;13.62;100.00;100898.06;1743341;82;21034;-88
2022/07/01 01:40:26;;;;;;;37.78;23.62;;;;;;;13.58;100.00;100900.61;1742991;82;21054;-88
2022/07/01 01:42:53;;;;;;;45.60;25.43;;;;;;;13.59;100.00;100900.47;1743468;82;21098;-89
2022/07/01 01:45:20;;;;;;;40.58;25.35;;;;;;;13.59;100.00;100894.39;1743229;82;21456;-88
2022/07/01 01:47:47;;;;;;;45.55;24.63;;;;;;;13.55;100.00;100897.28;1743254;82;21144;-88
2022/07/01 01:50:15;;;;;;;47.65;26.82;;;;;;;13.55;100.00;100898.59;1743369;82;21027;-88
2022/07/01 01:52:43;;;;;;;50.20;27.30;;;;;;;13.58;100.00;100910.58;1743094;82;21054;-89
2022/07/01 01:55:11;;;;;;;52.08;28.20;;;;;;;13.58;100.00;100909.27;1743200;82;21074;-88
2022/07/01 01:57:38;;;;;;;53.48;29.90;;;;;;;13.56;100.00;100913.33;1743530;82;21485;-89
2022/07/01 02:00:08;;;;;;;43.92;26.50;;;;;;;13.56;100.00;100913.33;1743349;82;21697;-89
2022/07/01 02:02:41;;;;;;;48.90;27.95;;;;;;;13.56;100.00;100912.02;1743085;82;21054;-90
2022/07/01 02:05:12;;;;;;;46.35;26.73;;;;;;;13.59;100.00;100920.55;1743243;82;21125;-89
2022/07/01 02:07:40;;;;;;;43.38;25.60;;;;;;;13.62;100.00;100925.54;1743624;82;20995;-89
2022/07/01 02:10:08;;;;;;;40.98;24.60;;;;;;;13.66;100.00;100924.34;1743050;82;21145;-89
2022/07/01 02:12:36;;;;;;;39.58;24.15;;;;;;;13.71;100.00;100924.78;1743368;82;21034;-88
2022/07/01 02:15:04;;;;;;;43.28;24.55;;;;;;;13.78;100.00;100930.34;1743021;82;20943;-88
2022/07/01 02:17:31;;;;;;;42.93;23.38;;;;;;;13.83;100.00;100932.90;1743476;82;20967;-89
2022/07/01 02:19:58;;;;;;;35.13;21.82;;;;;;;13.90;100.00;100932.41;1743042;82;20998;-88
2022/07/01 02:22:25;;;;;;;34.73;19.73;;;;;;;13.95;100.00;100936.76;1743480;82;21058;-89
2022/07/01 02:24:53;;;;;;;30.02;19.02;;;;;;;14.01;100.00;100942.78;1742879;82;21128;-88
2022/07/01 02:27:20;;;;;;;28.57;17.42;;;;;;;14.07;100.00;100940.12;1743362;82;21560;-89
2022/07/01 02:29:47;;;;;;;25.70;15.28;;;;;;;14.13;100.00;100939.14;1742865;82;21007;-88
2022/07/01 02:32:14;;;;;;;22.77;14.53;;;;;;;14.20;100.00;100940.27;1743415;82;21097;-88
2022/07/01 02:34:41;;;;;;;21.10;13.13;;;;;;;14.28;100.00;100947.95;1743115;82;21058;-89
2022/07/01 02:37:09;;;;;;;18.80;13.30;;;;;;;14.34;100.00;100950.84;1743317;82;21172;-89
2022/07/01 02:39:37;;;;;;;17.57;13.50;;;;;;;14.41;100.00;100948.55;1742871;82;20976;-89
2022/07/01 02:44:50;;;;;;;21.55;13.40;;;;;;;14.53;100.00;100949.77;1743092;82;21058;-89
2022/07/01 02:47:17;;;;;;;19.35;13.75;;;;;;;14.58;100.00;100956.23;1742743;82;21007;-89
2022/07/01 02:49:44;;;;;;;20.43;13.62;;;;;;;14.63;100.00;100950.60;1743138;82;21430;-89
2022/07/01 02:52:11;;;;;;;22.77;13.72;;;;;;;14.70;100.00;100951.78;1743268;82;21583;-88
2022/07/01 02:54:39;;;;;;;16.80;13.25;;;;;;;14.77;100.00;100951.59;1743140;82;21043;-90
2022/07/01 02:57:06;;;;;;;17.65;14.47;;;;;;;14.84;100.00;100953.17;1743291;82;21525;-88
2022/07/01 02:59:34;;;;;;;18.98;13.40;;;;;;;14.92;100.00;100950.70;1743123;82;21018;-88
2022/07/01 03:02:04;;;;;;;17.60;13.15;;;;;;;15.01;100.00;100947.77;1743153;82;21818;-89
2022/07/01 03:04:31;;;;;;;18.02;13.22;;;;;;;15.11;100.00;100953.83;1743041;82;21031;-89
2022/07/01 03:06:59;;;;;;;17.27;13.10;;;;;;;15.22;100.00;100945.49;1743437;82;21097;-89
2022/07/01 03:09:26;;;;;;;18.55;14.13;;;;;;;15.33;100.00;100947.99;1743200;82;21042;-89
2022/07/01 03:11:53;;;;;;;19.40;14.60;;;;;;;15.43;100.00;100954.05;1743378;82;21026;-90
2022/07/01 03:14:21;;;;;;;16.62;14.10;;;;;;;15.54;100.00;100947.00;1743068;82;21154;-91
2022/07/01 03:16:48;;;;;;;23.42;15.48;;;;;;;15.66;100.00;100939.80;1743005;82;21042;-91
2022/07/01 03:19:17;;;;;;;20.05;15.23;;;;;;;15.77;100.00;100940.47;1743034;82;21018;-90
2022/07/01 03:21:44;;;;;;;18.48;15.68;;;;;;;15.91;100.00;100951.52;1743135;82;21002;-90
2022/07/01 03:24:11;;;;;;;21.02;16.32;;;;;;;16.05;100.00;100950.23;1743415;82;21051;-90
2022/07/01 03:26:40;;;;;;;19.67;15.03;;;;;;;16.19;100.00;100954.20;1743170;82;21182;-90
2022/07/01 03:29:07;;;;;;;19.37;16.42;;;;;;;16.32;100.00;100952.57;1743022;82;21504;-89
2022/07/01 03:31:35;;;;;;;20.85;15.65;;;;;;;16.45;100.00;100948.30;1743233;82;21026;-90
2022/07/01 03:34:03;;;;;;;22.30;15.40;;;;;;;16.58;100.00;100949.27;1743159;82;21011;-90
2022/07/01 03:36:30;;;;;;;21.90;17.07;;;;;;;16.70;100.00;100952.84;1743226;82;21040;-89
2022/07/01 03:38:57;;;;;;;19.87;16.32;;;;;;;16.83;100.00;100954.31;1743094;82;21537;-89
2022/07/01 03:41:24;;;;;;;19.25;15.75;;;;;;;16.96;100.00;100951.35;1743107;82;21023;-89
2022/07/01 03:56:33;;;;;;;19.42;14.93;;;;;;;17.94;100.00;100943.40;1841089;77;22332;-82
2022/07/01 03:59:00;;;;;;;17.70;14.63;;;;;;;18.08;100.00;100949.09;1772640;79;21508;-82
2022/07/01 04:01:27;;;;;;;23.30;14.87;;;;;;;18.17;100.00;100946.84;1775348;80;21659;-83
2022/07/01 04:03:55;;;;;;;20.92;14.60;;;;;;;18.24;100.00;100948.36;1767127;80;20946;-83
2022/07/01 04:06:23;;;;;;;22.00;14.98;;;;;;;18.32;100.00;100945.77;1772758;80;21507;-82
2022/07/01 04:08:51;;;;;;;19.00;14.78;;;;;;;18.41;100.00;100949.25;1794482;79;21518;-82
2022/07/01 04:11:18;;;;;;;19.27;15.03;;;;;;;18.52;100.00;100952.09;1784220;80;21053;-82
2022/07/01 04:13:50;;;;;;;18.20;14.03;;;;;;;18.64;100.00;100949.51;1775429;79;21218;-83
2022/07/01 04:16:16;;;;;;;18.27;15.63;;;;;;;18.73;100.00;100954.30;1777955;79;20938;-83
2022/07/01 04:18:46;;;;;;;19.73;16.05;;;;;;;18.80;100.00;100959.77;1777107;79;21561;-82
2022/07/01 04:23:58;;;;;;;19.30;15.00;;;;;;;18.91;100.00;100962.08;1780542;79;21061;-82
2022/07/01 04:26:26;;;;;;;14.87;13.38;;;;;;;18.95;100.00;100963.45;1787979;80;21820;-82
2022/07/01 04:28:55;;;;;;;14.18;11.97;;;;;;;18.98;100.00;100967.11;1779638;80;21065;-82
2022/07/01 04:31:22;;;;;;;13.48;12.18;;;;;;;19.00;100.00;100969.57;1762666;80;21118;-83
2022/07/01 04:33:50;;;;;;;10.90;9.88;;;;;;;19.02;100.00;100971.56;1778699;80;21096;-82
2022/07/01 04:36:17;;;;;;;12.13;10.00;;;;;;;19.07;100.00;100974.53;1775462;80;21037;-82
2022/07/01 04:38:45;;;;;;;10.65;9.60;;;;;;;19.15;100.00;100975.05;1774428;80;21116;-83
2022/07/01 04:43:58;;;;;;;10.38;9.28;;;;;;;19.29;100.00;100973.55;1798787;78;22032;-83
2022/07/01 04:46:25;;;;;;;11.33;10.00;;;;;;;19.38;100.00;100971.25;1771248;80;21069;-82
2022/07/01 04:48:54;;;;;;;10.55;9.45;;;;;;;19.48;100.00;100969.28;1793581;79;21710;-82
2022/07/01 04:51:21;;;;;;;10.82;9.73;;;;;;;19.57;100.00;100972.73;1773615;80;21292;-83
2022/07/01 04:53:48;;;;;;;10.58;9.33;;;;;;;19.69;100.00;100970.58;1777907;80;21793;-83
2022/07/01 04:56:16;;;;;;;11.25;10.05;;;;;;;19.81;100.00;100969.73;1771519;80;21061;-82
2022/07/01 04:58:43;;;;;;;11.03;9.38;;;;;;;19.93;100.00;100963.15;1788292;79;21041;-83
2022/07/01 05:01:11;;;;;;;9.08;8.18;;;;;;;20.06;100.00;100969.23;1782339;79;21002;-82
2022/07/01 05:03:39;;;;;;;10.18;8.65;;;;;;;20.16;100.00;100967.20;1771049;79;21168;-83
2022/07/01 05:06:06;;;;;;;9.35;8.48;;;;;;;20.31;100.00;100968.65;1783588;79;21033;-82
2022/07/01 05:08:34;;;;;;;9.40;8.50;;;;;;;20.42;100.00;100963.48;1776193;79;21531;-80
2022/07/01 05:11:01;;;;;;;12.80;8.80;;;;;;;20.53;100.00;100966.75;1786806;80;21566;-81
2022/07/01 05:13:28;;;;;;;11.40;8.33;;;;;;;20.63;100.00;100962.89;1773412;80;20946;-81
2022/07/01 05:15:55;;;;;;;8.70;7.72;;;;;;;20.74;100.00;100964.34;1799847;79;21493;-81
2022/07/01 05:23:54;;;;;;;13.80;8.95;;;;;;;21.19;100.00;100955.80;1803650;78;21042;-81
2022/07/01 05:26:25;;;;;;;8.68;7.78;;;;;;;21.37;100.00;100952.32;1791313;80;21550;-81
2022/07/01 05:28:54;;;;;;;13.68;8.28;;;;;;;21.53;100.00;100955.34;1773052;79;21159;-81
2022/07/01 05:31:22;;;;;;;9.63;8.60;;;;;;;21.68;100.00;100955.37;1790639;79;21901;-80
2022/07/01 05:33:49;;;;;;;8.93;7.95;;;;;;;21.82;100.00;100955.59;1775388;80;20988;-81
2022/07/01 05:36:16;;;;;;;9.13;7.87;;;;;;;21.95;100.00;100953.13;1809372;79;21042;-81
2022/07/01 05:38:43;;;;;;;10.00;8.38;;;;;;;22.06;100.00;100946.06;1770972;80;21118;-80
2022/07/01 05:41:10;;;;;;;8.88;7.37;;;;;;;22.19;100.00;100940.08;1782706;79;21752;-80
2022/07/01 05:43:37;;;;;;;8.73;7.83;;;;;;;22.32;100.00;100942.08;1771867;80;21079;-81
2022/07/01 05:46:05;;;;;;;7.87;7.05;;;;;;;22.47;100.00;100942.09;1768691;80;21047;-81
2022/07/01 05:48:32;;;;;;;7.50;6.70;;;;;;;22.61;100.00;100940.42;1781715;79;21014;-82
2022/07/01 05:51:00;;;;;;;7.60;6.90;;;;;;;22.76;100.00;100945.67;1802395;79;21046;-81
2022/07/01 05:53:27;;;;;;;9.88;6.87;;;;;;;22.86;100.00;100942.73;1811489;79;21131;-80
2022/07/01 05:55:54;;;;;;;7.47;5.70;;;;;;;22.92;100.00;100943.30;1809514;79;21038;-80
2022/07/01 05:58:21;;;;;;;7.15;6.55;;;;;;;22.98;100.00;100941.20;1806723;79;21609;-81
2022/07/01 06:00:48;;;;;;;7.58;5.97;;;;;;;23.09;100.00;100943.85;1792092;78;21002;-81
2022/07/01 06:03:15;;;;;;;8.75;6.15;;;;;;;23.20;100.00;100935.91;1801751;79;21026;-81
2022/07/01 06:05:43;;;;;;;8.80;5.80;;;;;;;23.35;100.00;100948.30;1797371;79;21125;-81
2022/07/01 06:08:10;;;;;;;7.62;5.83;;;;;;;23.45;100.00;100941.64;1793010;79;21040;-81
2022/07/01 06:10:38;;;;;;;8.75;5.53;;;;;;;23.55;100.00;100939.97;1785320;79;21053;-81
2022/07/01 06:13:06;;;;;;;10.30;5.53;;;;;;;23.66;100.00;100944.44;1782779;79;21012;-81
2022/07/01 06:15:33;;;;;;;7.83;5.20;;;;;;;23.75;100.00;100940.62;1792411;79;21015;-82
2022/07/01 06:18:01;;;;;;;6.00;4.30;;;;;;;23.85;100.00;100942.92;1791609;79;21141;-81
2022/07/01 06:20:29;;;;;;;7.72;4.03;;;;;;;23.96;100.00;100946.90;1785885;79;20993;-81
2022/07/01 06:22:57;;;;;;;4.92;4.10;;;;;;;24.07;100.00;100947.69;1754946;80;21037;-82
2022/07/01 06:25:25;;;;;;;7.28;3.80;;;;;;;24.20;100.00;100948.23;1766120;81;21578;-81
2022/07/01 06:27:52;;;;;;;4.15;3.70;;;;;;;24.35;96.01;100934.80;1790414;79;21029;-81
2022/07/01 06:30:20;;;;;;;4.08;3.45;;;;;;;24.47;94.94;100941.20;1779993;79;21134;-81
2022/07/01 06:32:47;;;;;;;9.58;4.08;;;;;;;24.57;90.21;100930.97;1743669;80;20997;-81
2022/07/01 06:35:15;;;;;;;4.42;3.37;;;;;;;24.67;88.68;100928.47;1761761;80;21073;-80
2022/07/01 06:37:43;;;;;;;6.58;3.50;;;;;;;24.76;80.58;100938.44;1766832;79;21692;-81
2022/07/01 06:40:11;;;;;;;8.75;3.27;;;;;;;24.83;79.10;100932.09;1753612;81;21086;-81
2022/07/01 06:42:38;;;;;;;5.70;2.98;;;;;;;24.91;75.81;100927.59;1796691;79;21189;-82
2022/07/01 06:45:07;;;;;;;7.78;3.50;;;;;;;25.00;74.08;100924.52;1793145;79;21038;-83
2022/07/01 06:47:34;;;;;;;4.87;2.80;;;;;;;25.10;75.20;100926.80;1800185;79;21073;-83
2022/07/01 06:50:04;;;;;;;4.97;3.27;;;;;;;25.20;70.01;100921.05;1799862;79;21050;-82
2022/07/01 06:52:32;;;;;;;5.80;3.10;;;;;;;25.28;70.05;100921.37;1799949;79;21070;-82
2022/07/01 06:55:01;;;;;;;4.25;3.22;;;;;;;25.35;71.69;100923.52;1799957;79;22285;-82
2022/07/01 06:57:29;;;;;;;4.40;2.77;;;;;;;25.45;67.64;100921.27;1799963;79;21477;-82
2022/07/01 06:59:56;;;;;;;4.22;3.02;;;;;;;25.53;66.08;100919.41;1793972;79;21038;-82
2022/07/01 07:02:23;;;;;;;7.35;3.40;;;;;;;25.60;64.59;100921.05;1765210;80;21096;-82
2022/07/01 07:04:50;;;;;;;6.53;3.30;;;;;;;25.71;64.59;100926.25;1770326;80;20989;-82
2022/07/01 07:07:17;;;;;;;3.98;2.50;;;;;;;25.80;63.32;100919.67;1766203;80;21159;-82
2022/07/01 07:09:44;;;;;;;4.75;2.80;;;;;;;25.89;59.37;100920.78;1757232;81;21088;-81
2022/07/01 07:12:11;;;;;;;3.10;2.80;;;;;;;25.97;56.01;100924.02;1761673;79;20998;-82
2022/07/01 07:14:39;;;;;;;3.35;2.62;;;;;;;25.98;57.45;100923.00;1757493;81;20963;-81
2022/07/01 07:17:06;;;;;;;4.62;2.90;;;;;;;26.03;58.40;100930.38;1761723;80;21021;-82
2022/07/01 07:19:34;;;;;;;2.72;2.40;;;;;;;26.08;56.53;100928.44;1784796;79;21899;-85
2022/07/01 07:22:01;;;;;;;3.27;2.72;;;;;;;26.13;54.63;100923.27;1789406;79;20950;-83
2022/07/01 07:24:28;;;;;;;4.95;2.80;;;;;;;26.21;55.55;100928.37;1780285;79;21014;-83
2022/07/01 07:26:55;;;;;;;4.50;2.60;;;;;;;26.31;54.67;100927.94;1778893;79;21061;-83
2022/07/01 07:29:23;;;;;;;3.62;2.58;;;;;;;26.39;53.26;100924.19;1806018;79;21042;-83
2022/07/01 07:31:50;;;;;;;6.17;2.58;;;;;;;26.47;53.33;100923.14;1784853;79;21122;-82
2022/07/01 07:34:20;;;;;;;3.20;2.40;;;;;;;26.56;54.91;100917.85;1777271;79;20997;-83
2022/07/01 07:36:48;;;;;;;7.45;2.60;;;;;;;26.68;53.71;100920.12;1782355;79;21048;-83
2022/07/01 07:39:15;;;;;;;2.77;2.58;;;;;;;26.80;52.40;100916.81;1787136;79;21581;-82
2022/07/01 07:41:42;;;;;;;5.67;2.60;;;;;;;26.86;52.57;100915.41;1776699;79;21040;-83
2022/07/01 07:44:09;;;;;;;6.40;2.65;;;;;;;26.93;50.64;100920.71;1785937;79;21964;-82
2022/07/01 07:46:37;;;;;;;2.47;2.27;;;;;;;26.96;51.07;100909.57;1808106;79;21069;-83
2022/07/01 07:49:04;;;;;;;5.67;2.15;;;;;;;26.98;52.45;100910.70;1779435;79;21015;-84
2022/07/01 07:51:32;;;;;;;5.28;2.65;;;;;;;26.96;47.14;100908.77;1776653;80;20985;-82
2022/07/01 07:54:01;;;;;;;2.20;2.08;;;;;;;26.89;50.01;100911.48;1794711;78;20994;-82
2022/07/01 07:56:28;;;;;;;3.98;2.60;;;;;;;26.89;45.91;100920.83;1794213;79;21083;-82
2022/07/01 07:58:56;;;;;;;3.67;2.90;;;;;;;26.85;46.99;100915.63;1798309;79;21625;-82
2022/07/01 08:01:24;;;;;;;3.98;2.60;;;;;;;26.87;48.54;100906.36;1790504;79;21041;-83
2022/07/01 08:03:52;;;;;;;4.22;2.80;;;;;;;26.96;47.11;100917.59;1789895;79;22846;-83
2022/07/01 08:06:20;;;;;;;4.20;2.50;;;;;;;27.05;46.02;100908.27;1785451;80;21335;-84
2022/07/01 08:08:47;;;;;;;7.72;3.45;;;;;;;27.13;48.22;100914.38;1784927;80;21168;-83
2022/07/01 08:11:15;;;;;;;3.15;2.75;;;;;;;27.23;47.63;100908.02;1785089;80;21007;-83
2022/07/01 08:13:43;;;;;;;3.77;2.85;;;;;;;27.28;47.60;100901.48;1785111;80;21481;-83
2022/07/01 08:16:11;;;;;;;8.60;2.75;;;;;;;27.30;47.12;100900.76;1784986;80;21067;-83
2022/07/01 08:18:38;;;;;;;3.58;3.00;;;;;;;27.37;46.63;100900.70;1784918;80;21003;-83
2022/07/01 08:21:05;;;;;;;3.87;2.45;;;;;;;27.44;46.20;100902.02;1788721;78;21131;-83
2022/07/01 08:23:34;;;;;;;3.20;2.45;;;;;;;27.46;41.41;100904.77;1811682;79;21522;-83
2022/07/01 08:26:01;;;;;;;3.27;2.10;;;;;;;27.41;43.25;100899.21;1816982;79;21038;-82
2022/07/01 08:28:29;;;;;;;2.92;2.60;;;;;;;27.37;42.50;100900.17;1817220;79;21516;-82
2022/07/01 08:30:57;;;;;;;4.25;2.30;;;;;;;27.39;42.97;100903.45;1817121;79;21026;-83
2022/07/01 08:33:25;;;;;;;4.10;2.30;;;;;;;27.44;41.62;100902.82;1817244;79;21138;-83
2022/07/01 08:35:52;;;;;;;3.58;2.10;;;;;;;27.43;44.73;100893.70;1816983;79;20934;-83
2022/07/01 08:38:20;;;;;;;2.60;2.40;;;;;;;27.37;46.06;100897.50;1813608;79;20971;-83
2022/07/01 08:40:47;;;;;;;2.47;2.27;;;;;;;27.37;44.18;100895.36;1786274;79;20975;-84
2022/07/01 08:43:14;;;;;;;4.22;2.25;;;;;;;27.40;47.32;100895.73;1789883;78;20935;-83
2022/07/01 08:45:42;;;;;;;2.72;2.20;;;;;;;27.45;43.99;100900.45;1745153;80;21203;-83
2022/07/01 08:48:09;;;;;;;4.10;2.42;;;;;;;27.44;41.46;100891.33;1788862;80;21053;-82
2022/07/01 08:50:39;;;;;;;11.20;2.52;;;;;;;27.48;44.17;100900.52;1788962;80;21042;-82
2022/07/01 08:53:09;;;;;;;5.28;2.60;;;;;;;27.61;45.15;100900.38;1762703;79;22247;-82
2022/07/01 08:58:28;;;;;;;3.80;2.60;;;;;;;27.76;41.08;100897.87;1696850;84;21213;-82
2022/07/01 09:01:20;;;;;;;3.08;2.70;;;;;;;27.76;42.73;100903.23;1732069;81;21014;-83
2022/07/01 09:03:53;;;;;;;5.62;2.60;;;;;;;27.84;42.62;100892.23;1726442;83;21544;-83
2022/07/01 09:06:27;;;;;;;3.87;2.85;;;;;;;27.95;41.34;100892.80;1696100;84;21049;-83
2022/07/01 09:08:54;;;;;;;2.67;2.47;;;;;;;28.01;41.46;100895.09;1758775;81;21011;-82
2022/07/01 09:11:29;;;;;;;4.35;2.60;;;;;;;28.11;42.25;100887.39;1762904;81;21493;-83
2022/07/01 09:14:13;;;;;;;3.42;3.12;;;;;;;28.20;42.31;100885.73;1762971;81;21019;-83
2022/07/01 09:16:45;;;;;;;4.37;3.22;;;;;;;28.21;43.96;100892.20;1762752;81;21074;-83
2022/07/01 09:19:14;;;;;;;5.12;2.72;;;;;;;28.16;43.02;100886.72;1762041;81;21011;-83
2022/07/01 09:21:42;;;;;;;3.25;2.95;;;;;;;28.15;43.06;100883.73;1762810;81;21507;-84
2022/07/01 09:24:37;;;;;;;5.20;3.02;;;;;;;28.13;47.25;100884.48;1763083;81;21126;-83
2022/07/01 09:27:16;;;;;;;3.50;3.20;;;;;;;28.10;44.14;100879.06;1762602;81;21010;-84
2022/07/01 09:29:46;;;;;;;3.05;2.45;;;;;;;28.07;44.24;100878.70;1763185;81;21049;-83
2022/07/01 09:32:17;;;;;;;3.37;2.60;;;;;;;28.05;46.43;100877.53;1762870;80;20996;-84
2022/07/01 09:34:51;;;;;;;3.30;2.65;;;;;;;28.11;47.14;100871.84;1763183;81;20959;-84
2022/07/01 09:37:22;;;;;;;4.58;2.65;;;;;;;28.17;45.74;100870.92;1762524;81;21319;-86
2022/07/01 09:39:52;;;;;;;3.35;2.85;;;;;;;28.18;43.79;100876.07;1785725;80;20994;-84
2022/07/01 09:42:21;;;;;;;;;;;;;;;28.11;44.40;100874.52;1792997;79;21089;-84
2022/07/01 09:44:59;;;;;;;;;;;;;;;28.10;48.05;100867.02;1767872;80;20431;-83
2022/07/01 09:47:27;;;;;;;;;;;;;;;28.26;46.18;100861.53;1769722;80;20191;-84
2022/07/01 09:49:55;;;;;;;;;;;;;;;28.38;47.99;100872.82;1769464;80;21163;-85
2022/07/01 09:52:23;;;;;;;;;;;;;;;28.42;45.56;100852.05;1773711;80;20233;-85
2022/07/01 09:54:51;;;;;;;;;;;;;;;28.38;44.75;100867.46;1769455;80;20154;-85
2022/07/01 09:57:19;;;;;;;;;;;;;;;28.37;44.25;100863.95;1760488;81;20543;-84
2022/07/01 09:59:46;;;;;;;;;;;;;;;28.39;43.49;100851.70;1758871;80;20161;-85
2022/07/01 10:02:13;;;;;;;;;;;;;;;28.43;47.53;100852.86;1756607;80;21798;-85
2022/07/01 10:04:44;;;;;;;;;;;;;;;28.53;43.84;100861.66;1776448;80;20164;-85
2022/07/01 10:07:28;;;;;;;;;;;;;;;28.51;41.92;100852.53;1770204;80;20159;-85
2022/07/01 10:10:04;;;;;;;;;;;;;;;28.46;43.05;100857.23;1754888;80;20473;-84
2022/07/01 10:12:41;;;;;;;;;;;;;;;28.46;43.06;100851.07;1745751;82;20214;-84
2022/07/01 10:15:10;;;;;;;;;;;;;;;28.51;41.64;100848.51;1745599;82;21881;-85
2022/07/01 10:17:43;;;;;;;;;;;;;;;28.52;42.20;100850.69;1764312;80;20163;-85
2022/07/01 10:20:16;;;;;;;;;;;;;;;28.57;43.63;100842.23;1745695;80;20130;-85
2022/07/01 10:22:44;;;;;;;;;;;;;;;28.67;41.15;100852.91;1776853;80;20184;-84
2022/07/01 10:25:32;;;;;;;;;;;;;;;28.61;43.03;100841.25;1770571;80;20147;-84
2022/07/01 10:31:07;;;;;;;;;;;;;;;28.58;43.41;100843.86;1762890;80;20162;-85
2022/07/01 10:33:40;;;;;;;;;;;;;;;28.68;41.68;100830.44;1755276;80;20476;-84
2022/07/01 10:36:33;;;;;;;;;;;;;;;28.66;42.43;100833.35;1775768;80;20180;-85
2022/07/01 10:39:10;;;;;;;;;;;;;;;28.67;40.92;100826.95;1757857;80;20170;-85
2022/07/01 10:41:41;;;;;;;;;;;;;;;28.64;41.53;100820.70;1755003;80;21185;-84
2022/07/01 10:44:11;;;;;;;;;;;;;;;28.61;42.29;100824.67;1758512;80;20218;-84
2022/07/01 10:46:41;;;;;;;;;;;;;;;28.58;42.25;100812.27;1759548;80;20460;-85
2022/07/01 10:49:08;;;;;;;;;;;;;;;28.60;39.39;100813.66;1774278;80;20137;-84
2022/07/01 10:51:49;;;;;;;;;;;;;;;28.63;40.26;100802.49;1774143;80;20434;-85
2022/07/01 10:54:45;;;;;;;;;;;;;;;28.67;43.19;100807.37;1776294;80;21789;-84
2022/07/01 10:57:19;;;;;;;;;;;;;;;28.70;41.42;100796.23;1774531;80;20422;-84
2022/07/01 10:59:51;;;;;;;;;;;;;;;28.79;41.83;100792.97;1767094;80;20142;-84
2022/07/01 11:02:23;;;;;;;;;;;;;;;28.89;46.42;100783.53;1754674;81;20135;-83
2022/07/01 11:04:53;;;;;;;;;;;;;;;29.02;44.17;100782.48;1755092;81;20139;-85
2022/07/01 11:07:20;;;;;;;;;;;;;;;29.02;42.23;100789.17;1754778;81;21141;-85
2022/07/01 11:09:47;;;;;;;;;;;;;;;28.98;40.63;100793.36;1754817;81;20138;-84
2022/07/01 11:12:17;;;;;;;;;;;;;;;28.96;41.01;100791.73;1754753;81;20193;-84
2022/07/01 11:14:45;;;;;;;;;;;;;;;28.93;41.43;100784.17;1762332;80;20202;-84
2022/07/01 11:17:14;;;;;;;;;;;;;;;28.91;40.48;100779.56;1754731;81;21009;-85
2022/07/01 11:19:44;;;;;;;;;;;;;;;28.85;40.22;100782.35;1762871;80;21091;-84
2022/07/01 11:22:11;;;;;;;;;;;;;;;28.84;38.95;100776.73;1767085;80;20137;-85
2022/07/01 11:24:38;;;;;;;;;;;;;;;28.84;40.23;100785.57;1758758;80;20231;-84
2022/07/01 11:27:08;;;;;;;;;;;;;;;28.81;40.32;100782.00;1754549;81;20462;-85
2022/07/01 11:29:35;;;;;;;;;;;;;;;28.82;42.07;100775.60;1745894;81;20135;-84
2022/07/01 11:32:03;;;;;;;;;;;;;;;28.94;42.26;100783.13;1762647;80;21140;-84
2022/07/01 11:34:30;;;;;;;;;;;;;;;29.08;38.38;100781.53;1754478;81;20147;-84
2022/07/01 11:39:43;;;;;;;;;;;;;;;29.08;40.97;100777.00;1763265;80;20147;-84
2022/07/01 11:42:11;;;;;;;;;;;;;;;29.09;42.07;100772.45;1761959;80;20147;-84
2022/07/01 11:44:41;;;;;;;;;;;;;;;29.11;41.49;100783.75;1764361;80;21223;-84
2022/07/01 11:47:09;;;;;;;;;;;;;;;29.11;40.80;100776.52;1754628;80;20216;-84
2022/07/01 11:49:47;;;;;;;;;;;;;;;29.12;40.69;100774.12;1758846;80;20188;-85
2022/07/01 11:52:14;;;;;;;;;;;;;;;29.15;41.51;100773.38;1761364;80;20130;-83
2022/07/01 11:54:50;;;;;;;;;;;;;;;29.16;40.92;100777.16;1756511;80;20214;-84
2022/07/01 11:57:19;;;;;;;;;;;;;;;29.20;39.72;100776.98;1751803;81;21104;-84
2022/07/01 11:59:47;;;;;;;;;;;;;;;29.17;40.45;100768.57;1744671;81;20203;-84
2022/07/01 12:02:16;;;;;;;;;;;;;;;29.12;42.18;100770.11;1745705;82;20170;-84
2022/07/01 12:04:45;;;;;;;;;;;;;;;29.13;42.97;100762.87;1745420;82;20234;-84
2022/07/01 12:07:14;;;;;;;;;;;;;;;29.16;42.67;100770.45;1748646;80;20600;-84
2022/07/01 12:09:41;;;;;;;;;;;;;;;29.22;42.73;100770.03;1750310;80;21154;-84